Time;durP1;ratioP1;P1;durP2;ratioP2;P2;SDS_P1;SDS_P2;PMS_P1;PMS_P2;Temp;Humidity;BMP_temperature;BMP_pressure;BME280_temperature;BME280_humidity;BME280_pressure;Samples;Min_cycle;Max_cycle;Signal;HPM_P1;HPM_P2
2023/09/02 00:00:01;;;;;;;23.65;13.73;;;;;;;16.17;67.56;99780.84;4915853;29;20071;-71
2023/09/02 00:02:40;;;;;;;23.30;12.70;;;;;;;16.22;67.69;99789.41;4924138;28;20186;-70
2023/09/02 00:05:06;;;;;;;23.88;11.82;;;;;;;16.31;67.79;99805.78;4941741;29;20051;-70
2023/09/02 00:07:33;;;;;;;30.23;13.35;;;;;;;16.35;67.49;99815.28;4942840;29;20051;-72
2023/09/02 00:09:59;;;;;;;25.45;13.70;;;;;;;16.27;67.37;99803.25;4909681;29;20082;-71
2023/09/02 00:12:25;;;;;;;26.00;12.95;;;;;;;16.34;67.51;99813.56;4926018;29;20047;-70
2023/09/02 00:14:51;;;;;;;29.38;13.18;;;;;;;16.30;67.60;99799.69;4925817;29;20458;-70
2023/09/02 00:17:17;;;;;;;22.00;12.88;;;;;;;16.32;67.46;99799.63;4941351;28;20043;-71
2023/09/02 00:19:43;;;;;;;29.73;12.90;;;;;;;16.22;67.45;99780.69;4894558;29;20043;-70
2023/09/02 00:22:09;;;;;;;23.60;12.57;;;;;;;16.15;67.21;99764.28;4922974;29;20497;-71
2023/09/02 00:24:36;;;;;;;23.42;13.13;;;;;;;16.30;67.47;99797.06;4928182;29;20431;-69
2023/09/02 00:27:05;;;;;;;29.38;15.23;;;;;;;16.26;67.21;99795.44;4894615;29;20568;-71
2023/09/02 00:29:33;;;;;;;24.40;14.02;;;;;;;16.37;67.39;99802.97;4944032;28;20055;-70
2023/09/02 00:32:00;;;;;;;26.65;11.38;;;;;;;15.91;67.11;99730.06;4926361;29;20048;-70
2023/09/02 00:34:27;;;;;;;29.15;13.00;;;;;;;16.26;67.23;99784.94;4927639;29;20084;-70
2023/09/02 00:36:53;;;;;;;22.95;11.60;;;;;;;15.87;67.42;99717.94;4929059;29;20067;-72
2023/09/02 00:39:19;;;;;;;30.58;11.38;;;;;;;16.07;67.38;99742.69;4945427;28;20065;-71
2023/09/02 00:41:49;;;;;;;23.63;12.88;;;;;;;16.43;67.43;99794.91;4945571;29;20050;-74
2023/09/02 00:44:15;;;;;;;19.00;11.88;;;;;;;16.38;67.23;99805.53;4925250;29;20051;-74
2023/09/02 00:46:41;;;;;;;28.48;12.98;;;;;;;16.07;67.42;99753.19;4929261;29;20095;-71
2023/09/02 00:49:07;;;;;;;21.50;12.50;;;;;;;16.19;67.25;99765.91;4930086;29;20040;-73
2023/09/02 00:51:33;;;;;;;24.10;11.93;;;;;;;16.34;67.99;99798.66;4944904;29;20044;-71
2023/09/02 00:53:59;;;;;;;21.08;12.80;;;;;;;16.38;67.74;99804.69;4928061;29;20035;-72
2023/09/02 00:56:28;;;;;;;24.92;12.77;;;;;;;16.39;67.66;99794.13;4927826;29;20039;-70
2023/09/02 00:58:59;;;;;;;22.50;13.77;;;;;;;16.24;67.59;99771.84;4943147;28;20043;-70
2023/09/02 01:01:27;;;;;;;17.77;11.73;;;;;;;16.18;67.99;99758.06;4928625;29;20046;-68
2023/09/02 01:03:53;;;;;;;25.67;13.82;;;;;;;16.24;67.75;99777.09;4947295;29;20045;-68
2023/09/02 01:06:21;;;;;;;23.33;12.13;;;;;;;16.00;68.23;99730.69;4919722;29;20047;-69
2023/09/02 01:08:50;;;;;;;21.27;12.63;;;;;;;16.08;68.01;99740.03;4914582;29;20074;-68
2023/09/02 01:11:16;;;;;;;20.42;12.77;;;;;;;16.28;68.48;99775.25;4932661;29;20040;-70
2023/09/02 01:13:42;;;;;;;24.15;11.50;;;;;;;16.10;68.38;99755.72;4932061;29;20058;-69
2023/09/02 01:16:08;;;;;;;24.25;12.02;;;;;;;16.18;68.13;99781.69;4930968;29;20050;-71
2023/09/02 01:18:37;;;;;;;22.08;12.48;;;;;;;16.01;68.26;99759.50;4932539;29;20074;-71
2023/09/02 01:21:19;;;;;;;19.83;11.98;;;;;;;16.16;68.82;99781.75;4948792;29;20043;-70
2023/09/02 01:24:13;;;;;;;23.92;13.40;;;;;;;16.16;68.39;99780.88;4931359;29;20510;-69
2023/09/02 01:27:13;;;;;;;27.38;15.20;;;;;;;16.10;68.42;99779.31;4945807;29;20596;-69
2023/09/02 01:29:53;;;;;;;20.50;14.30;;;;;;;16.06;69.02;99768.09;4930779;29;20067;-70
2023/09/02 01:32:19;;;;;;;31.83;17.77;;;;;;;15.73;68.38;99714.88;4931183;29;20624;-69
2023/09/02 01:34:47;;;;;;;25.42;16.70;;;;;;;16.06;68.93;99772.44;4930983;29;20078;-69
2023/09/02 01:37:14;;;;;;;26.40;15.45;;;;;;;16.06;68.79;99782.94;4930458;29;20043;-70
2023/09/02 01:39:42;;;;;;;25.38;15.02;;;;;;;15.91;68.79;99773.78;4947295;29;20071;-71
2023/09/02 01:42:10;;;;;;;22.23;13.05;;;;;;;15.74;69.03;99748.91;4931943;29;20043;-70
2023/09/02 01:44:37;;;;;;;20.00;12.45;;;;;;;15.61;68.92;99731.84;4929815;29;20035;-70
2023/09/02 01:47:04;;;;;;;21.85;12.30;;;;;;;15.66;69.25;99730.81;4931179;29;20071;-71
2023/09/02 01:49:31;;;;;;;21.08;12.43;;;;;;;15.80;69.08;99764.47;4945338;29;20111;-69
2023/09/02 01:51:58;;;;;;;18.90;12.25;;;;;;;16.02;69.68;99787.44;4912846;29;20036;-70
2023/09/02 01:54:25;;;;;;;18.23;11.98;;;;;;;15.91;69.20;99766.78;4928165;29;20063;-70
2023/09/02 01:56:52;;;;;;;19.02;11.43;;;;;;;16.05;69.66;99774.25;4911282;29;20409;-70
2023/09/02 01:59:18;;;;;;;24.45;11.63;;;;;;;16.08;69.02;99765.41;4944297;28;20086;-69
2023/09/02 02:01:44;;;;;;;18.40;11.05;;;;;;;16.04;69.30;99756.78;4927044;29;20063;-71
2023/09/02 02:04:27;;;;;;;24.15;11.15;;;;;;;16.22;69.06;99781.53;4942360;29;20505;-70
2023/09/02 02:07:10;;;;;;;18.05;11.15;;;;;;;16.09;69.09;99754.00;4928125;29;20055;-71
2023/09/02 02:09:45;;;;;;;20.08;11.15;;;;;;;16.19;69.13;99788.66;4933760;29;20036;-71
2023/09/02 02:12:12;;;;;;;20.20;11.15;;;;;;;16.10;69.12;99774.06;4916364;29;20476;-72
2023/09/02 02:14:38;;;;;;;18.50;11.48;;;;;;;15.86;69.43;99736.38;4926300;29;20043;-69
2023/09/02 02:17:06;;;;;;;19.08;11.68;;;;;;;15.90;69.48;99725.72;4926957;29;20504;-71
2023/09/02 02:19:33;;;;;;;24.48;11.02;;;;;;;16.30;69.29;99785.69;4927816;29;20464;-69
2023/09/02 02:22:00;;;;;;;13.50;10.05;;;;;;;15.96;69.12;99730.78;4927360;29;20528;-69
2023/09/02 02:24:26;;;;;;;19.75;10.70;;;;;;;16.27;68.76;99781.41;4942686;28;20048;-68
2023/09/02 02:26:52;;;;;;;18.80;10.02;;;;;;;16.19;69.19;99752.78;4942636;29;20066;-67
2023/09/02 02:29:18;;;;;;;19.85;10.70;;;;;;;16.27;69.11;99758.63;4944641;29;20446;-69
2023/09/02 02:31:45;;;;;;;15.38;10.07;;;;;;;16.39;68.89;99786.25;4945806;28;20081;-68
2023/09/02 02:34:11;;;;;;;22.75;10.85;;;;;;;16.24;67.87;99748.22;4930101;29;20043;-69
2023/09/02 02:36:38;;;;;;;18.92;10.55;;;;;;;16.27;68.12;99774.38;4946802;28;20043;-70
2023/09/02 02:39:05;;;;;;;23.40;11.57;;;;;;;16.29;68.63;99778.72;4937634;29;20035;-71
2023/09/02 02:41:32;;;;;;;22.40;11.63;;;;;;;16.21;68.32;99784.22;4930600;29;20047;-71
2023/09/02 02:43:59;;;;;;;23.50;12.13;;;;;;;15.79;68.56;99720.78;4914187;29;20094;-69
2023/09/02 02:46:25;;;;;;;24.67;12.27;;;;;;;16.10;68.78;99774.06;4945692;28;20589;-71
2023/09/02 02:48:51;;;;;;;21.20;12.23;;;;;;;16.17;68.80;99788.72;4913842;29;20134;-69
2023/09/02 02:51:19;;;;;;;24.25;11.43;;;;;;;15.85;68.36;99742.50;4945392;28;20074;-69
2023/09/02 02:53:48;;;;;;;20.13;11.43;;;;;;;16.13;69.31;99779.22;4910734;29;21435;-71
2023/09/02 02:56:15;;;;;;;20.85;11.95;;;;;;;16.12;69.21;99759.13;4930894;29;20358;-70
2023/09/02 02:58:41;;;;;;;20.05;10.93;;;;;;;16.17;68.69;99775.59;4912961;29;20061;-71
2023/09/02 03:01:14;;;;;;;19.92;11.50;;;;;;;16.23;69.05;99796.38;4912953;29;20105;-70
2023/09/02 03:03:41;;;;;;;19.27;10.88;;;;;;;16.23;69.18;99782.41;4929640;29;20042;-70
2023/09/02 03:06:07;;;;;;;17.58;10.20;;;;;;;16.39;69.02;99791.50;4929460;29;20051;-69
2023/09/02 03:08:34;;;;;;;22.02;11.55;;;;;;;16.29;68.68;99768.22;4944826;29;20070;-69
2023/09/02 03:11:03;;;;;;;18.40;9.65;;;;;;;16.40;68.86;99779.25;4945344;29;20449;-68
2023/09/02 03:13:33;;;;;;;21.73;11.07;;;;;;;16.48;68.77;99773.72;4929060;29;20082;-68
2023/09/02 03:16:04;;;;;;;20.13;10.88;;;;;;;16.61;68.51;99790.78;4945649;29;20517;-68
2023/09/02 03:18:31;;;;;;;21.13;11.43;;;;;;;16.44;68.46;99753.72;4935211;29;20125;-69
2023/09/02 03:21:06;;;;;;;28.42;11.55;;;;;;;16.54;68.48;99777.00;4913311;29;20575;-70
2023/09/02 03:23:34;;;;;;;17.17;11.15;;;;;;;16.59;68.05;99778.63;4923417;29;20142;-71
2023/09/02 03:26:10;;;;;;;18.10;11.25;;;;;;;16.36;68.42;99735.63;4944338;28;20158;-71
2023/09/02 03:28:38;;;;;;;17.27;11.50;;;;;;;16.75;68.38;99781.59;4930189;29;20454;-70
2023/09/02 03:31:06;;;;;;;20.25;11.60;;;;;;;16.88;68.09;99801.25;4926963;29;20537;-71
2023/09/02 03:33:32;;;;;;;20.63;12.52;;;;;;;16.80;67.43;99783.13;4928654;29;20043;-70
2023/09/02 03:35:59;;;;;;;22.70;12.65;;;;;;;16.75;67.72;99795.56;4928397;29;20053;-72
2023/09/02 03:38:27;;;;;;;19.02;12.43;;;;;;;16.63;68.22;99761.84;4946822;28;20509;-71
2023/09/02 03:40:53;;;;;;;24.60;12.40;;;;;;;16.60;68.09;99744.41;4946329;28;20035;-70
2023/09/02 03:43:19;;;;;;;20.95;12.70;;;;;;;16.70;68.14;99756.31;4944232;29;20058;-71
2023/09/02 03:45:49;;;;;;;25.15;12.95;;;;;;;16.68;67.21;99765.16;4929938;29;20047;-70
2023/09/02 03:48:19;;;;;;;18.10;11.82;;;;;;;16.68;68.08;99773.03;4928360;29;20061;-69
2023/09/02 03:51:12;;;;;;;25.90;13.00;;;;;;;16.74;67.52;99793.84;4945164;28;20409;-68
2023/09/02 03:53:43;;;;;;;29.60;15.13;;;;;;;16.68;67.75;99791.41;4927426;29;20197;-70
2023/09/02 03:56:10;;;;;;;25.63;14.43;;;;;;;16.61;67.91;99784.69;4929491;29;20049;-69
2023/09/02 03:58:37;;;;;;;28.65;15.27;;;;;;;16.58;67.96;99779.53;4929247;29;20103;-71
2023/09/02 04:01:03;;;;;;;23.42;14.52;;;;;;;16.70;68.33;99789.59;4945213;29;20453;-71
2023/09/02 04:03:35;;;;;;;21.67;13.73;;;;;;;16.94;68.35;99797.53;4912642;29;20513;-71
2023/09/02 04:06:03;;;;;;;28.08;12.48;;;;;;;16.79;67.86;99767.41;4944574;28;20622;-68
2023/09/02 04:08:34;;;;;;;25.88;11.63;;;;;;;16.98;67.85;99794.81;4944208;28;20134;-71
2023/09/02 04:11:04;;;;;;;23.02;11.95;;;;;;;17.03;67.89;99797.25;4944566;28;20177;-70
2023/09/02 04:13:31;;;;;;;19.35;11.10;;;;;;;17.08;68.03;99789.19;4944326;28;20502;-72
2023/09/02 04:16:02;;;;;;;25.63;11.07;;;;;;;17.13;67.47;99790.75;4930170;29;20035;-70
2023/09/02 04:18:30;;;;;;;29.55;12.38;;;;;;;17.38;67.88;99802.16;4912694;29;20117;-70
2023/09/02 04:21:03;;;;;;;18.15;11.40;;;;;;;17.57;67.68;99797.91;4930901;29;20442;-71
2023/09/02 04:23:30;;;;;;;22.70;11.02;;;;;;;17.52;67.20;99754.28;4943939;28;20074;-70
2023/09/02 04:26:02;;;;;;;23.17;10.90;;;;;;;18.04;66.93;99783.84;4946821;28;20485;-69
2023/09/02 04:28:29;;;;;;;20.73;10.63;;;;;;;18.02;65.75;99775.16;4946631;29;20046;-69
2023/09/02 04:30:57;;;;;;;24.08;10.85;;;;;;;18.14;65.91;99781.69;4916568;29;20058;-71
2023/09/02 04:33:25;;;;;;;20.80;9.90;;;;;;;18.31;65.90;99786.28;4909426;29;20485;-70
2023/09/02 04:35:53;;;;;;;16.70;10.18;;;;;;;18.36;64.76;99762.38;4911900;28;20053;-70
2023/09/02 04:38:19;;;;;;;21.48;9.57;;;;;;;18.52;64.38;99789.81;4929792;29;20039;-73
2023/09/02 04:40:48;;;;;;;18.25;9.23;;;;;;;18.66;64.85;99778.66;4929191;29;20217;-70
2023/09/02 04:43:15;;;;;;;18.70;9.55;;;;;;;19.01;64.43;99788.63;4928605;29;20035;-70
2023/09/02 04:45:43;;;;;;;18.35;8.85;;;;;;;19.19;63.58;99780.84;4910893;29;20142;-69
2023/09/02 04:48:12;;;;;;;17.90;8.70;;;;;;;19.11;62.83;99753.03;4895587;29;20044;-70
2023/09/02 04:50:39;;;;;;;14.30;8.68;;;;;;;19.41;62.77;99775.44;4945436;28;20169;-69
2023/09/02 04:53:07;;;;;;;16.05;7.45;;;;;;;19.38;61.89;99768.53;4944318;28;20039;-69
2023/09/02 04:55:40;;;;;;;14.73;7.72;;;;;;;19.58;62.01;99795.75;4925302;29;20043;-69
2023/09/02 04:58:09;;;;;;;15.20;7.65;;;;;;;19.64;61.47;99776.16;4910729;29;20051;-69
2023/09/02 05:00:38;;;;;;;12.18;7.15;;;;;;;19.67;61.16;99765.44;4928715;29;20043;-70
2023/09/02 05:03:05;;;;;;;12.65;7.68;;;;;;;19.74;60.16;99780.06;4907391;29;20039;-69
2023/09/02 05:05:33;;;;;;;13.02;7.32;;;;;;;19.86;60.63;99766.28;4928149;29;20039;-70
2023/09/02 05:08:03;;;;;;;12.88;7.32;;;;;;;20.13;59.94;99784.38;4929539;29;20070;-71
2023/09/02 05:10:30;;;;;;;13.30;7.10;;;;;;;19.98;59.36;99782.47;4928224;29;20106;-71
2023/09/02 05:12:56;;;;;;;11.80;7.75;;;;;;;20.06;59.19;99792.69;4909209;29;20127;-71
2023/09/02 05:15:22;;;;;;;12.88;7.90;;;;;;;19.99;59.12;99776.25;4928139;29;20540;-72
2023/09/02 05:17:50;;;;;;;18.27;7.68;;;;;;;20.25;59.50;99793.50;4929212;29;20047;-70
2023/09/02 05:20:17;;;;;;;16.13;7.43;;;;;;;20.45;59.07;99792.50;4929612;29;20035;-71
2023/09/02 05:22:43;;;;;;;12.32;6.88;;;;;;;20.64;58.02;99788.91;4927274;29;20065;-70
2023/09/02 05:25:09;;;;;;;12.52;6.82;;;;;;;20.80;57.84;99793.47;4944299;29;20042;-69
2023/09/02 05:27:38;;;;;;;9.23;7.05;;;;;;;21.09;57.49;99791.06;4898442;29;20042;-70
2023/09/02 05:30:06;;;;;;;9.85;7.30;;;;;;;21.61;56.95;99806.81;4939953;28;20044;-70
2023/09/02 05:32:32;;;;;;;9.88;6.47;;;;;;;22.18;55.87;99802.78;4940243;29;20040;-72
2023/09/02 05:34:58;;;;;;;8.65;6.47;;;;;;;22.43;55.09;99806.69;4926041;29;20115;-71
2023/09/02 05:37:24;;;;;;;13.45;6.88;;;;;;;22.26;54.01;99787.31;4941894;29;20502;-71
2023/09/02 05:39:50;;;;;;;10.77;6.63;;;;;;;22.10;53.55;99786.47;4907616;29;20682;-69
2023/09/02 05:42:16;;;;;;;13.27;6.90;;;;;;;21.72;53.06;99766.53;4938909;28;20043;-70
2023/09/02 05:44:43;;;;;;;8.02;6.00;;;;;;;21.81;53.10;99799.56;4941324;28;20986;-71
2023/09/02 05:47:08;;;;;;;9.02;6.53;;;;;;;21.81;53.23;99815.47;4926017;29;20043;-69
2023/09/02 05:49:36;;;;;;;11.23;6.57;;;;;;;21.77;53.40;99816.56;4926664;29;20113;-70
2023/09/02 05:52:07;;;;;;;12.95;6.88;;;;;;;21.77;53.10;99808.63;4919597;29;20673;-69
2023/09/02 05:54:33;;;;;;;8.13;6.90;;;;;;;21.80;52.63;99800.50;4928772;29;20413;-70
2023/09/02 05:56:59;;;;;;;10.48;6.53;;;;;;;22.19;52.92;99795.69;4944761;29;20537;-71
2023/09/02 05:59:25;;;;;;;15.25;6.38;;;;;;;22.75;51.88;99808.38;4929464;29;20095;-72
2023/09/02 06:01:58;;;;;;;11.30;6.68;;;;;;;22.88;52.10;99796.13;4929595;29;20572;-71
2023/09/02 06:04:24;;;;;;;10.93;6.53;;;;;;;23.21;51.40;99789.72;4944646;29;20498;-71
2023/09/02 06:06:51;;;;;;;13.68;6.72;;;;;;;23.35;50.61;99786.19;4945301;28;20483;-73
2023/09/02 06:09:17;;;;;;;9.65;6.07;;;;;;;23.92;50.35;99800.34;4914368;29;20050;-69
2023/09/02 06:11:43;;;;;;;9.80;6.25;;;;;;;23.92;49.88;99787.06;4927952;29;20055;-69
2023/09/02 06:14:09;;;;;;;14.18;7.03;;;;;;;24.08;49.48;99815.31;4944245;28;20072;-69
2023/09/02 06:16:35;;;;;;;11.70;6.65;;;;;;;24.28;48.60;99806.00;4945127;29;20075;-71
2023/09/02 06:19:02;;;;;;;11.93;7.10;;;;;;;24.46;48.81;99818.09;4943572;28;20044;-69
2023/09/02 06:21:28;;;;;;;13.93;6.55;;;;;;;24.68;48.03;99803.34;4925955;29;20577;-69
2023/09/02 06:23:54;;;;;;;8.93;6.28;;;;;;;24.92;47.81;99811.50;4925657;29;20048;-71
2023/09/02 06:26:20;;;;;;;10.13;6.55;;;;;;;25.18;46.64;99816.81;4941870;28;20051;-70
2023/09/02 06:28:46;;;;;;;10.75;6.57;;;;;;;25.14;46.61;99817.97;4912312;29;20733;-69
2023/09/02 06:31:13;;;;;;;9.18;6.53;;;;;;;25.10;46.83;99803.19;4926994;29;20463;-69
2023/09/02 06:33:39;;;;;;;11.18;6.28;;;;;;;25.32;46.62;99814.97;4925763;29;20142;-71
2023/09/02 06:36:12;;;;;;;10.57;6.50;;;;;;;25.61;45.96;99822.75;4928013;29;20050;-71
2023/09/02 06:38:39;;;;;;;11.32;6.05;;;;;;;26.26;45.36;99818.06;4927635;29;20048;-70
2023/09/02 06:41:10;;;;;;;14.82;7.25;;;;;;;27.19;44.23;99803.06;4942766;28;20437;-69
2023/09/02 06:43:38;;;;;;;11.52;7.20;;;;;;;28.33;42.37;99802.91;4909126;29;20044;-70
2023/09/02 06:46:17;;;;;;;10.65;7.07;;;;;;;29.54;41.08;99809.56;4911378;29;20053;-69
2023/09/02 06:48:44;;;;;;;11.15;6.30;;;;;;;30.63;39.20;99811.38;4930046;29;20095;-70
2023/09/02 06:51:10;;;;;;;10.20;6.55;;;;;;;31.52;37.84;99817.34;4926775;29;20156;-68
2023/09/02 06:53:36;;;;;;;13.88;6.63;;;;;;;32.12;35.66;99821.38;4926511;29;20512;-70
2023/09/02 06:56:09;;;;;;;12.25;7.40;;;;;;;32.13;34.76;99803.41;4911311;29;20089;-69
2023/09/02 06:58:38;;;;;;;22.17;7.93;;;;;;;32.38;33.29;99825.19;4911061;29;20466;-71
2023/09/02 07:01:04;;;;;;;12.25;7.30;;;;;;;32.49;33.29;99811.47;4942133;28;20044;-71
2023/09/02 07:03:30;;;;;;;15.55;7.70;;;;;;;32.53;32.92;99826.31;4941190;28;20062;-71
2023/09/02 07:06:04;;;;;;;16.38;7.97;;;;;;;32.17;32.43;99820.94;4926044;29;20055;-70
2023/09/02 07:08:31;;;;;;;17.75;8.15;;;;;;;31.87;32.90;99827.53;4941179;28;20051;-74
2023/09/02 07:10:56;;;;;;;13.60;7.47;;;;;;;31.29;33.40;99816.03;4927472;29;20043;-71
2023/09/02 07:13:22;;;;;;;19.15;8.80;;;;;;;31.17;32.72;99826.13;4925010;29;20099;-72
2023/09/02 07:16:06;;;;;;;26.05;8.98;;;;;;;31.15;32.63;99815.53;4941351;28;20048;-73
2023/09/02 07:18:33;;;;;;;13.10;7.82;;;;;;;31.10;32.96;99798.97;4926243;29;20047;-73
2023/09/02 07:21:00;;;;;;;16.17;8.38;;;;;;;31.67;32.14;99832.97;4910800;29;20042;-72
2023/09/02 07:23:28;;;;;;;14.80;7.72;;;;;;;32.07;32.22;99821.00;4926168;29;20044;-72
2023/09/02 07:25:56;;;;;;;14.18;7.65;;;;;;;33.19;31.40;99820.56;4921748;29;20040;-72
2023/09/02 07:28:23;;;;;;;11.85;7.97;;;;;;;34.00;30.26;99833.72;4896098;29;20051;-73
2023/09/02 07:30:49;;;;;;;15.43;7.30;;;;;;;33.82;29.40;99796.03;4932410;29;20055;-73
2023/09/02 07:33:15;;;;;;;15.55;8.23;;;;;;;33.61;29.41;99795.50;4940963;29;20194;-73
2023/09/02 07:35:41;;;;;;;15.13;7.93;;;;;;;33.27;29.79;99804.41;4925432;29;20043;-72
2023/09/02 07:38:08;;;;;;;12.80;7.40;;;;;;;32.75;29.76;99795.34;4926395;29;20162;-71
2023/09/02 07:40:34;;;;;;;10.85;7.35;;;;;;;32.31;30.27;99800.75;4926497;29;20044;-70
2023/09/02 07:43:03;;;;;;;11.48;8.40;;;;;;;32.06;31.05;99837.28;4924019;29;20059;-70
2023/09/02 07:45:29;;;;;;;14.43;8.15;;;;;;;31.69;31.39;99839.91;4926459;29;20051;-73
2023/09/02 07:47:55;;;;;;;14.00;7.68;;;;;;;31.47;32.06;99841.13;4928704;29;20150;-72
2023/09/02 07:50:22;;;;;;;19.20;8.80;;;;;;;31.06;31.91;99845.91;4940977;28;20390;-71
2023/09/02 07:52:48;;;;;;;14.82;8.57;;;;;;;30.59;32.95;99842.19;4924358;29;20762;-72
2023/09/02 07:55:15;;;;;;;19.65;8.45;;;;;;;30.22;32.87;99842.03;4942445;28;20047;-73
2023/09/02 07:57:44;;;;;;;17.88;8.10;;;;;;;29.81;33.75;99852.78;4909916;29;20058;-76
2023/09/02 08:00:11;;;;;;;11.63;8.20;;;;;;;29.30;34.03;99848.22;4893347;29;20423;-73
2023/09/02 08:02:40;;;;;;;12.80;7.35;;;;;;;28.81;35.04;99837.19;4894453;29;20057;-75
2023/09/02 08:05:07;;;;;;;13.68;8.18;;;;;;;28.38;35.08;99820.25;4891164;29;20123;-74
2023/09/02 08:07:33;;;;;;;10.20;7.82;;;;;;;28.32;35.64;99873.41;4940078;29;20485;-73
2023/09/02 08:09:59;;;;;;;12.45;7.82;;;;;;;27.99;36.17;99869.81;4924641;29;20051;-74
2023/09/02 08:12:25;;;;;;;13.95;8.18;;;;;;;27.50;36.55;99862.94;4939251;28;20142;-74
2023/09/02 08:14:51;;;;;;;20.02;9.18;;;;;;;26.91;37.47;99842.56;4927139;29;20104;-71
2023/09/02 08:17:19;;;;;;;18.27;9.02;;;;;;;26.73;38.08;99891.03;4917023;29;20051;-72
2023/09/02 08:19:45;;;;;;;16.75;8.77;;;;;;;26.42;38.78;99887.97;4931930;29;20062;-76
2023/09/02 08:22:13;;;;;;;16.45;9.57;;;;;;;26.22;39.43;99894.78;4925443;29;20138;-75
2023/09/02 08:24:39;;;;;;;21.15;9.55;;;;;;;25.58;40.57;99817.66;4926279;29;20043;-80
2023/09/02 08:27:05;;;;;;;18.17;9.43;;;;;;;25.81;40.91;99894.09;4925534;29;20042;-75
2023/09/02 08:29:32;;;;;;;18.85;9.95;;;;;;;25.54;41.21;99884.44;4930338;29;20717;-73
2023/09/02 08:31:58;;;;;;;17.88;9.20;;;;;;;25.36;41.92;99891.03;4943166;28;20039;-74
2023/09/02 08:34:25;;;;;;;16.92;10.23;;;;;;;25.15;42.07;99878.25;4943196;28;20039;-73
2023/09/02 08:36:51;;;;;;;17.73;10.52;;;;;;;24.92;42.63;99872.69;4911159;29;20049;-72
2023/09/02 08:39:17;;;;;;;19.50;10.07;;;;;;;24.94;42.97;99883.22;4925188;29;20035;-71
2023/09/02 08:41:45;;;;;;;16.13;9.70;;;;;;;24.89;43.33;99888.84;4943682;28;20190;-70
2023/09/02 08:44:16;;;;;;;21.65;10.57;;;;;;;24.72;43.67;99881.16;4910911;29;20129;-72
2023/09/02 08:46:45;;;;;;;21.75;10.23;;;;;;;24.69;43.84;99889.31;4943558;28;20130;-71
2023/09/02 08:49:16;;;;;;;17.40;9.43;;;;;;;24.60;44.07;99886.34;4931759;29;20134;-73
2023/09/02 08:51:44;;;;;;;21.50;10.30;;;;;;;24.56;44.18;99866.22;4930884;29;20043;-72
2023/09/02 08:54:12;;;;;;;21.77;10.05;;;;;;;24.70;44.28;99899.00;4914873;29;20131;-70
2023/09/02 08:56:42;;;;;;;21.63;10.00;;;;;;;24.81;44.73;99910.66;4916128;29;20050;-73
2023/09/02 08:59:13;;;;;;;22.38;10.32;;;;;;;24.52;44.42;99854.91;4930487;29;20117;-76
2023/09/02 09:01:44;;;;;;;;;;;;;;;24.78;44.76;99921.50;4947521;28;20051;-73
2023/09/02 09:04:13;;;;;;;22.45;9.85;;;;;;;24.73;44.63;99925.44;4945804;28;20024;-71
2023/09/02 09:06:40;;;;;;;26.45;11.15;;;;;;;24.42;45.01;99887.53;4914544;29;20043;-72
2023/09/02 09:09:11;;;;;;;21.20;10.70;;;;;;;24.48;45.46;99903.09;4947519;29;20043;-74
2023/09/02 09:11:42;;;;;;;26.45;11.07;;;;;;;24.34;46.17;99912.81;4928213;29;20047;-71
2023/09/02 09:14:22;;;;;;;26.13;12.00;;;;;;;24.21;46.66;99935.81;4946067;29;21546;-73
2023/09/02 09:16:54;;;;;;;23.08;11.25;;;;;;;23.96;47.62;99942.66;4934571;29;20183;-72
2023/09/02 09:19:24;;;;;;;20.35;11.30;;;;;;;23.75;47.92;99942.19;4948280;29;20836;-74
2023/09/02 09:21:50;;;;;;;25.20;11.93;;;;;;;23.46;48.36;99947.47;4931123;29;20047;-72
2023/09/02 09:24:16;;;;;;;25.50;12.60;;;;;;;23.15;49.42;99934.22;4945777;28;20039;-71
2023/09/02 09:26:44;;;;;;;30.23;12.00;;;;;;;23.08;49.92;99948.78;4948367;28;20051;-70
2023/09/02 09:29:18;;;;;;;25.02;12.77;;;;;;;22.93;50.88;99945.25;4949805;28;20285;-73
2023/09/02 09:31:44;;;;;;;23.77;11.95;;;;;;;22.70;51.70;99930.66;4951365;29;20145;-81
2023/09/02 09:34:11;;;;;;;24.05;12.20;;;;;;;22.78;51.77;99962.91;4935119;29;20046;-69
2023/09/02 09:36:37;;;;;;;23.73;12.82;;;;;;;22.71;51.93;99972.16;4950856;28;20047;-73
2023/09/02 09:39:05;;;;;;;28.90;12.73;;;;;;;22.58;52.32;99966.69;4948449;29;20532;-71
2023/09/02 09:41:32;;;;;;;24.48;12.93;;;;;;;22.39;52.98;99948.28;4950712;29;20512;-71
2023/09/02 09:44:15;;;;;;;31.55;14.25;;;;;;;22.42;53.30;99974.59;4948215;29;20046;-70
2023/09/02 09:46:53;;;;;;;30.73;14.25;;;;;;;22.38;53.89;99981.03;4949237;29;20694;-69
2023/09/02 09:49:27;;;;;;;28.10;13.73;;;;;;;22.09;54.05;99920.72;4950252;28;20039;-72
2023/09/02 09:51:59;;;;;;;23.98;12.25;;;;;;;22.41;55.16;99978.19;4948423;28;20047;-68
2023/09/02 09:54:50;;;;;;;27.02;12.57;;;;;;;22.46;55.73;99975.34;4932705;29;20046;-70
2023/09/02 09:57:30;;;;;;;23.95;13.00;;;;;;;22.49;55.91;99981.31;4949308;28;20043;-70
2023/09/02 09:59:57;;;;;;;31.90;13.25;;;;;;;22.34;56.10;99963.59;4951448;29;20497;-70
2023/09/02 10:02:23;;;;;;;18.88;12.20;;;;;;;22.38;56.12;99970.44;4948987;28;20075;-80
2023/09/02 10:04:56;;;;;;;22.38;13.07;;;;;;;22.28;56.57;99972.75;4954141;29;20040;-74
2023/09/02 10:07:24;;;;;;;21.08;13.40;;;;;;;22.31;56.83;99987.59;4949914;29;20047;-86
2023/09/02 10:09:53;;;;;;;26.33;13.52;;;;;;;22.13;57.05;99977.06;4952079;29;20086;-80
2023/09/02 10:12:20;;;;;;;21.38;13.82;;;;;;;21.98;57.56;99957.56;4936505;29;20528;-78
2023/09/02 10:14:47;;;;;;;28.40;14.48;;;;;;;22.26;57.74;99993.16;4937081;29;20035;-79
2023/09/02 10:17:14;;;;;;;23.15;16.20;;;;;;;22.19;58.06;99982.03;4951998;29;20142;-84
2023/09/02 10:19:40;;;;;;;26.25;16.38;;;;;;;21.99;58.65;99956.63;4919558;29;20043;-80
2023/09/02 10:22:07;;;;;;;27.50;14.63;;;;;;;22.18;59.88;99990.91;4952257;28;20461;-81
2023/09/02 10:24:58;;;;;;;29.45;17.75;;;;;;;22.07;60.37;99999.44;4935576;29;20031;-79
2023/09/02 10:27:26;;;;;;;25.58;17.35;;;;;;;21.82;61.04;99978.72;4937368;29;20090;-81
2023/09/02 10:29:58;;;;;;;32.33;16.77;;;;;;;21.93;61.17;100008.16;4952713;29;20047;-81
2023/09/02 10:32:48;;;;;;;25.90;16.55;;;;;;;21.95;61.10;100003.63;4954523;28;20051;-85
2023/09/02 10:35:20;;;;;;;31.85;19.85;;;;;;;21.85;61.04;99991.78;4938724;29;20523;-82
2023/09/02 10:38:02;;;;;;;36.10;20.02;;;;;;;21.85;61.41;99983.84;4917216;29;20075;-79
2023/09/02 10:40:34;;;;;;;30.60;18.40;;;;;;;21.96;61.15;99991.22;4948404;28;20175;-80
2023/09/02 10:43:02;;;;;;;28.25;18.92;;;;;;;21.78;61.41;99972.72;4953737;29;20039;-79
2023/09/02 10:45:30;;;;;;;32.85;19.42;;;;;;;21.65;61.42;99963.72;4936532;29;20051;-80
2023/09/02 10:47:58;;;;;;;53.38;32.40;;;;;;;21.81;61.62;99992.88;4951095;29;20041;-79
2023/09/02 10:50:24;;;;;;;51.00;28.98;;;;;;;21.66;61.55;99976.88;4934661;29;20054;-79
2023/09/02 10:52:52;;;;;;;27.17;16.90;;;;;;;21.62;61.59;99993.84;4943866;29;20350;-85
2023/09/02 10:55:21;;;;;;;30.42;17.05;;;;;;;21.57;61.72;100011.72;4945908;29;20071;-87
2023/09/02 10:57:51;;;;;;;28.35;17.13;;;;;;;21.27;62.15;99963.88;4954292;28;20138;-82
2023/09/02 11:00:22;;;;;;;25.70;17.00;;;;;;;21.39;62.46;99999.44;4958383;29;20045;-87
2023/09/02 11:02:53;;;;;;;26.97;18.20;;;;;;;21.29;62.92;99996.41;4953383;29;20042;-83
2023/09/02 11:05:23;;;;;;;30.20;19.88;;;;;;;21.21;63.08;100010.88;4944866;29;20560;-86
2023/09/02 11:07:50;;;;;;;31.80;19.60;;;;;;;21.18;63.78;100011.06;4958012;28;20039;-85
2023/09/02 11:10:19;;;;;;;27.98;18.70;;;;;;;21.18;63.77;100012.81;4955542;29;20053;-83
2023/09/02 11:13:00;;;;;;;30.27;19.63;;;;;;;21.21;64.30;100029.38;4936056;29;20047;-80
2023/09/02 11:15:28;;;;;;;27.92;17.92;;;;;;;21.19;64.04;100028.59;4955735;29;20043;-84
2023/09/02 11:17:56;;;;;;;31.33;17.95;;;;;;;21.21;64.38;100039.97;4936076;29;20042;-79
2023/09/02 11:20:25;;;;;;;33.13;18.20;;;;;;;20.99;64.50;100005.81;4913616;29;20133;-74
2023/09/02 11:23:02;;;;;;;28.77;18.60;;;;;;;21.14;64.45;100032.41;4931353;29;20050;-77
2023/09/02 11:25:43;;;;;;;31.85;19.42;;;;;;;20.75;64.55;99987.53;4933060;29;20039;-80